createdAt,value
2023-05-05T00:00:03.669Z,87.59
2023-05-05T00:00:15.442Z,87.59
2023-05-05T00:00:26.146Z,87.59
2023-05-05T00:00:39.064Z,87.59
2023-05-05T00:00:50.764Z,87.59
2023-05-05T00:01:03.184Z,87.63
2023-05-05T00:01:13.939Z,87.63
2023-05-05T00:01:25.660Z,87.63
2023-05-05T00:01:37.483Z,87.63
2023-05-05T00:01:48.180Z,87.73
2023-05-05T00:01:58.977Z,87.73
2023-05-05T00:02:10.736Z,87.73
2023-05-05T00:02:23.913Z,87.84
2023-05-05T00:02:34.690Z,87.84
2023-05-05T00:02:47.160Z,87.84
2023-05-05T00:02:59.155Z,87.84
2023-05-05T00:03:09.994Z,87.94
2023-05-05T00:03:20.825Z,87.94
2023-05-05T00:03:32.584Z,87.94
2023-05-05T00:03:44.326Z,88.14
2023-05-05T00:03:57.560Z,88.14
2023-05-05T00:04:10.015Z,88.24
2023-05-05T00:04:20.795Z,88.14
2023-05-05T00:04:33.446Z,88.14
2023-05-05T00:04:45.621Z,88.14
2023-05-05T00:04:56.317Z,88.14
2023-05-05T00:05:09.505Z,88.14
2023-05-05T00:05:21.969Z,88.14
2023-05-05T00:05:34.128Z,88.14
2023-05-05T00:05:44.883Z,88.14
2023-05-05T00:05:57.868Z,88.14
2023-05-05T00:06:10.028Z,88.14
2023-05-05T00:06:22.247Z,88.14
2023-05-05T00:06:34.064Z,88.14
2023-05-05T00:06:44.873Z,88.14
2023-05-05T00:06:55.587Z,88.04
2023-05-05T00:07:07.250Z,88.04
2023-05-05T00:07:18.004Z,88.04
2023-05-05T00:07:28.850Z,88.04
2023-05-05T00:07:40.630Z,88.04
2023-05-05T00:07:51.409Z,87.94
2023-05-05T00:08:02.184Z,87.94
2023-05-05T00:08:14.678Z,87.84
2023-05-05T00:08:26.423Z,87.84
2023-05-05T00:08:37.194Z,88.04
2023-05-05T00:08:48.881Z,88.14
2023-05-05T00:08:59.616Z,88.35
2023-05-05T00:09:10.323Z,88.35
2023-05-05T00:09:21.096Z,88.35
2023-05-05T00:09:32.754Z,88.35
2023-05-05T00:09:44.948Z,88.35
2023-05-05T00:09:55.689Z,88.24
2023-05-05T00:10:06.810Z,88.24
2023-05-05T00:10:17.848Z,88.14
2023-05-05T00:10:29.612Z,88.04
2023-05-05T00:10:40.645Z,88.04
2023-05-05T00:10:51.337Z,87.98
2023-05-05T00:11:04.050Z,88.08
2023-05-05T00:11:14.783Z,88.24
2023-05-05T00:11:25.490Z,88.49
2023-05-05T00:11:36.255Z,88.66
2023-05-05T00:11:47.005Z,88.80
2023-05-05T00:11:58.692Z,88.80
2023-05-05T00:12:11.119Z,88.70
2023-05-05T00:12:21.857Z,88.70
2023-05-05T00:12:34.553Z,88.59
2023-05-05T00:12:46.271Z,88.49
2023-05-05T00:12:57.063Z,88.49
2023-05-05T00:13:07.797Z,88.39
2023-05-05T00:13:18.516Z,88.39
2023-05-05T00:13:30.159Z,88.39
2023-05-05T00:13:42.583Z,88.29
2023-05-05T00:13:54.364Z,88.29
2023-05-05T00:14:05.058Z,88.29
2023-05-05T00:14:15.781Z,88.29
2023-05-05T00:14:27.452Z,88.39
2023-05-05T00:14:38.181Z,88.49
2023-05-05T00:14:48.893Z,88.49
2023-05-05T00:14:59.609Z,88.49
2023-05-05T00:15:10.292Z,88.59
2023-05-05T00:15:21.014Z,88.70
2023-05-05T00:15:33.396Z,88.80
2023-05-05T00:15:45.799Z,88.80
2023-05-05T00:15:57.499Z,88.80
2023-05-05T00:16:08.238Z,88.70
2023-05-05T00:16:18.928Z,88.59
2023-05-05T00:16:29.644Z,88.49
2023-05-05T00:16:40.378Z,88.39
2023-05-05T00:16:51.202Z,88.39
2023-05-05T00:17:02.900Z,88.39
2023-05-05T00:17:15.428Z,88.29
2023-05-05T00:17:26.197Z,88.29
2023-05-05T00:17:37.009Z,88.18
2023-05-05T00:17:47.726Z,88.29
2023-05-05T00:17:58.565Z,88.29
2023-05-05T00:18:10.205Z,88.39
2023-05-05T00:18:20.929Z,88.49
2023-05-05T00:18:31.681Z,88.59
2023-05-05T00:18:43.894Z,88.59
2023-05-05T00:18:54.618Z,88.59
2023-05-05T00:19:06.340Z,88.59
2023-05-05T00:19:18.066Z,88.59
2023-05-05T00:19:28.746Z,88.49
2023-05-05T00:19:39.518Z,88.39
2023-05-05T00:19:50.215Z,88.39
2023-05-05T00:20:01.940Z,88.29
2023-05-05T00:20:14.150Z,88.29
2023-05-05T00:20:24.860Z,88.29
2023-05-05T00:20:35.593Z,88.29
2023-05-05T00:20:46.280Z,88.18
2023-05-05T00:20:57.019Z,88.18
2023-05-05T00:21:07.724Z,88.18
2023-05-05T00:21:18.469Z,88.18
2023-05-05T00:21:29.170Z,88.18
2023-05-05T00:21:39.917Z,88.29
2023-05-05T00:21:50.679Z,88.29
2023-05-05T00:22:01.400Z,88.18
2023-05-05T00:22:13.144Z,88.18
2023-05-05T00:22:25.345Z,88.29
2023-05-05T00:22:36.056Z,88.29
2023-05-05T00:22:47.772Z,88.49
2023-05-05T00:22:58.491Z,88.59
2023-05-05T00:23:09.253Z,88.59
2023-05-05T00:23:20.018Z,88.49
2023-05-05T00:23:31.667Z,88.39
2023-05-05T00:23:42.382Z,88.39
2023-05-05T00:23:54.092Z,88.39
2023-05-05T00:24:04.826Z,88.39
2023-05-05T00:24:16.513Z,88.39
2023-05-05T00:24:27.235Z,88.29
2023-05-05T00:24:39.690Z,88.29
2023-05-05T00:24:51.397Z,88.29
2023-05-05T00:25:03.071Z,88.29
2023-05-05T00:25:13.846Z,88.33
2023-05-05T00:25:24.544Z,88.43
2023-05-05T00:25:35.294Z,88.43
2023-05-05T00:25:47.709Z,88.43
2023-05-05T00:25:58.385Z,88.53
2023-05-05T00:26:10.117Z,88.64
2023-05-05T00:26:21.838Z,88.74
2023-05-05T00:26:32.534Z,88.74
2023-05-05T00:26:43.252Z,88.84
2023-05-05T00:26:53.960Z,88.84
2023-05-05T00:27:05.639Z,88.84
2023-05-05T00:27:16.413Z,88.84
2023-05-05T00:27:28.180Z,88.74
2023-05-05T00:27:41.084Z,88.74
2023-05-05T00:27:51.803Z,88.74
2023-05-05T00:28:02.568Z,88.74
2023-05-05T00:28:13.319Z,88.74
2023-05-05T00:28:24.050Z,88.84
2023-05-05T00:28:34.799Z,88.84
2023-05-05T00:28:46.482Z,88.84
2023-05-05T00:28:59.415Z,88.95
2023-05-05T00:29:13.125Z,89.05
2023-05-05T00:29:25.360Z,89.36
2023-05-05T00:29:37.021Z,89.56
2023-05-05T00:29:49.720Z,89.56
2023-05-05T00:30:01.406Z,89.56
2023-05-05T00:30:14.096Z,89.56
2023-05-05T00:30:27.099Z,89.56
2023-05-05T00:30:37.818Z,89.46
2023-05-05T00:30:48.541Z,89.36
2023-05-05T00:31:00.238Z,89.36
2023-05-05T00:31:12.695Z,89.25
2023-05-05T00:31:23.420Z,89.15
2023-05-05T00:31:35.677Z,89.15
2023-05-05T00:31:48.119Z,89.25
2023-05-05T00:31:58.868Z,89.36
2023-05-05T00:32:10.568Z,89.36
2023-05-05T00:32:21.303Z,89.46
2023-05-05T00:32:32.087Z,89.46
2023-05-05T00:32:44.519Z,89.46
2023-05-05T00:32:56.243Z,89.36
2023-05-05T00:33:06.997Z,89.36
2023-05-05T00:33:17.707Z,89.25
2023-05-05T00:33:29.412Z,89.25
2023-05-05T00:33:41.104Z,89.36
2023-05-05T00:33:53.601Z,89.36
2023-05-05T00:34:04.356Z,89.46
2023-05-05T00:34:15.080Z,89.67
2023-05-05T00:34:25.794Z,89.87
2023-05-05T00:34:36.515Z,89.87
2023-05-05T00:34:48.302Z,89.87
2023-05-05T00:34:58.979Z,89.77
2023-05-05T00:35:11.685Z,89.77
2023-05-05T00:35:23.895Z,89.77
2023-05-05T00:35:36.351Z,89.67
2023-05-05T00:35:48.014Z,89.67
2023-05-05T00:35:59.674Z,89.56
2023-05-05T00:36:10.383Z,89.46
2023-05-05T00:36:22.090Z,89.46
2023-05-05T00:36:32.825Z,89.46
2023-05-05T00:36:43.527Z,89.36
2023-05-05T00:36:54.245Z,89.36
2023-05-05T00:37:05.937Z,89.25
2023-05-05T00:37:18.411Z,89.15
2023-05-05T00:37:30.083Z,89.15
2023-05-05T00:37:41.779Z,89.15
2023-05-05T00:37:54.164Z,89.05
2023-05-05T00:38:05.907Z,89.05
2023-05-05T00:38:17.702Z,89.05
2023-05-05T00:38:30.407Z,89.05
2023-05-05T00:38:42.099Z,89.05
2023-05-05T00:38:52.894Z,89.05
2023-05-05T00:39:03.650Z,89.15
2023-05-05T00:39:14.400Z,89.36
2023-05-05T00:39:25.102Z,89.56
2023-05-05T00:39:36.779Z,89.56
2023-05-05T00:39:48.453Z,89.67
2023-05-05T00:40:00.959Z,89.67
2023-05-05T00:40:11.687Z,89.77
2023-05-05T00:40:23.358Z,89.77
2023-05-05T00:40:35.800Z,89.67
2023-05-05T00:40:46.521Z,89.77
2023-05-05T00:40:57.251Z,89.77
2023-05-05T00:41:07.958Z,89.77
2023-05-05T00:41:20.200Z,89.67
2023-05-05T00:41:30.905Z,89.67
2023-05-05T00:41:41.636Z,89.56
2023-05-05T00:41:54.041Z,89.56
2023-05-05T00:42:04.792Z,89.46
2023-05-05T00:42:15.554Z,89.46
2023-05-05T00:42:27.954Z,89.46
2023-05-05T00:42:38.671Z,89.46
2023-05-05T00:42:50.381Z,89.36
2023-05-05T00:43:01.131Z,89.46
2023-05-05T00:43:14.323Z,89.46
2023-05-05T00:43:26.797Z,89.56
2023-05-05T00:43:38.474Z,89.56
2023-05-05T00:43:49.164Z,89.56
2023-05-05T00:43:59.877Z,89.56
2023-05-05T00:44:10.654Z,89.56
2023-05-05T00:44:21.355Z,89.46
2023-05-05T00:44:33.063Z,89.56
2023-05-05T00:44:45.463Z,89.77
2023-05-05T00:44:57.668Z,89.77
2023-05-05T00:45:10.883Z,89.67
2023-05-05T00:45:23.287Z,89.61
2023-05-05T00:45:35.242Z,89.61
2023-05-05T00:45:45.969Z,89.61
2023-05-05T00:45:57.751Z,89.61
2023-05-05T00:46:09.516Z,89.61
2023-05-05T00:46:21.274Z,89.61
2023-05-05T00:46:32.014Z,89.71
2023-05-05T00:46:44.210Z,89.71
2023-05-05T00:46:55.885Z,89.81
2023-05-05T00:47:07.596Z,89.91
2023-05-05T00:47:19.285Z,89.91
2023-05-05T00:47:31.696Z,89.91
2023-05-05T00:47:43.407Z,89.91
2023-05-05T00:47:54.169Z,89.81
2023-05-05T00:48:04.973Z,89.81
2023-05-05T00:48:16.643Z,89.71
2023-05-05T00:48:27.346Z,89.81
2023-05-05T00:48:39.740Z,89.81
2023-05-05T00:48:51.951Z,90.01
2023-05-05T00:49:05.159Z,90.12
2023-05-05T00:49:16.891Z,90.12
2023-05-05T00:49:29.590Z,90.01
2023-05-05T00:49:40.355Z,90.01
2023-05-05T00:49:52.729Z,89.91
2023-05-05T00:50:03.462Z,89.91
2023-05-05T00:50:15.908Z,89.81
2023-05-05T00:50:28.085Z,89.91
2023-05-05T00:50:40.781Z,89.91
2023-05-05T00:50:52.542Z,89.91
2023-05-05T00:51:04.218Z,89.81
2023-05-05T00:51:15.920Z,89.81
2023-05-05T00:51:28.323Z,89.81
2023-05-05T00:51:39.987Z,89.81
2023-05-05T00:51:51.758Z,89.71
2023-05-05T00:52:04.186Z,89.71
2023-05-05T00:52:16.570Z,89.71
2023-05-05T00:52:27.346Z,89.71
2023-05-05T00:52:39.647Z,89.71
2023-05-05T00:52:50.382Z,89.81
2023-05-05T00:53:02.056Z,89.81
2023-05-05T00:53:13.750Z,89.81
2023-05-05T00:53:24.532Z,89.81
2023-05-05T00:53:36.185Z,89.81
2023-05-05T00:53:46.890Z,89.81
2023-05-05T00:53:59.168Z,89.71
2023-05-05T00:54:11.680Z,89.71
2023-05-05T00:54:22.342Z,89.71
2023-05-05T00:54:33.143Z,89.81
2023-05-05T00:54:45.590Z,89.81
2023-05-05T00:54:56.318Z,89.91
2023-05-05T00:55:08.571Z,89.91
2023-05-05T00:55:19.262Z,89.91
2023-05-05T00:55:30.069Z,89.91
2023-05-05T00:55:41.701Z,89.91
2023-05-05T00:55:52.410Z,89.81
2023-05-05T00:56:04.886Z,89.81
2023-05-05T00:56:18.058Z,89.91
2023-05-05T00:56:29.744Z,90.01
2023-05-05T00:56:42.196Z,90.01
2023-05-05T00:56:53.881Z,89.91
2023-05-05T00:57:04.589Z,89.81
2023-05-05T00:57:15.289Z,89.81
2023-05-05T00:57:27.250Z,89.81
2023-05-05T00:57:39.450Z,89.81
2023-05-05T00:57:51.863Z,89.81
2023-05-05T00:58:02.662Z,89.81
2023-05-05T00:58:15.116Z,89.81
2023-05-05T00:58:26.756Z,89.91
2023-05-05T00:58:37.510Z,89.91
2023-05-05T00:58:48.198Z,89.91
2023-05-05T00:59:00.076Z,89.91
2023-05-05T00:59:12.310Z,89.91
2023-05-05T00:59:25.205Z,89.91
2023-05-05T00:59:36.884Z,89.91
2023-05-05T00:59:47.639Z,89.91
2023-05-05T01:00:00.115Z,89.91
2023-05-05T01:00:13.286Z,89.91
2023-05-05T01:00:24.057Z,89.81
2023-05-05T01:00:34.743Z,89.91
2023-05-05T01:00:47.125Z,89.91
2023-05-05T01:00:57.885Z,89.91
2023-05-05T01:01:09.589Z,89.81
2023-05-05T01:01:21.397Z,89.81
2023-05-05T01:01:32.116Z,89.81
2023-05-05T01:01:45.298Z,89.81
2023-05-05T01:01:56.083Z,89.81
2023-05-05T01:02:06.790Z,89.81
2023-05-05T01:02:17.538Z,89.81
2023-05-05T01:02:30.034Z,89.81
2023-05-05T01:02:40.826Z,89.81
2023-05-05T01:02:52.844Z,89.91
2023-05-05T01:03:03.870Z,89.91
2023-05-05T01:03:14.661Z,90.01
2023-05-05T01:03:25.486Z,90.01
2023-05-05T01:03:37.598Z,90.12
2023-05-05T01:03:49.404Z,90.12
2023-05-05T01:04:01.718Z,90.12
2023-05-05T01:04:12.505Z,90.01
2023-05-05T01:04:24.919Z,90.01
2023-05-05T01:04:36.705Z,89.91
2023-05-05T01:04:49.138Z,90.01
2023-05-05T01:05:00.900Z,89.91
2023-05-05T01:05:12.848Z,89.91
2023-05-05T01:05:24.616Z,90.01
2023-05-05T01:05:37.825Z,90.01
2023-05-05T01:05:48.513Z,90.01
2023-05-05T01:05:59.226Z,90.01
2023-05-05T01:06:09.973Z,90.01
2023-05-05T01:06:21.651Z,90.01
2023-05-05T01:06:32.386Z,90.01
2023-05-05T01:06:43.156Z,90.12
2023-05-05T01:06:53.854Z,90.22
2023-05-05T01:07:06.043Z,90.22
2023-05-05T01:07:18.487Z,90.22
2023-05-05T01:07:30.668Z,90.33
2023-05-05T01:07:41.420Z,90.33
2023-05-05T01:07:53.617Z,90.33
2023-05-05T01:08:06.312Z,90.22
2023-05-05T01:08:19.969Z,90.22
2023-05-05T01:08:31.731Z,90.22
2023-05-05T01:08:43.425Z,90.12
2023-05-05T01:08:54.156Z,90.12
2023-05-05T01:09:06.412Z,90.12
2023-05-05T01:09:18.142Z,90.12
2023-05-05T01:09:31.341Z,90.12
2023-05-05T01:09:44.000Z,90.12
2023-05-05T01:10:11.064Z,90.12
2023-05-05T01:10:19.872Z,90.22
2023-05-05T01:10:27.709Z,90.12
2023-05-05T01:10:38.564Z,90.12
2023-05-05T01:10:50.221Z,90.01
2023-05-05T01:11:02.408Z,90.01
2023-05-05T01:11:13.158Z,89.91
2023-05-05T01:11:25.557Z,89.91
2023-05-05T01:11:36.314Z,89.91
2023-05-05T01:11:48.002Z,89.91
2023-05-05T01:11:58.718Z,89.81
2023-05-05T01:12:10.408Z,89.81
2023-05-05T01:12:21.179Z,89.81
2023-05-05T01:12:33.654Z,89.81
2023-05-05T01:12:44.386Z,89.81
2023-05-05T01:12:56.138Z,89.71
2023-05-05T01:13:06.985Z,89.71
2023-05-05T01:13:18.705Z,89.71
2023-05-05T01:13:31.647Z,89.71
2023-05-05T01:13:42.439Z,89.81
2023-05-05T01:13:53.179Z,89.81
2023-05-05T01:14:05.615Z,89.81
2023-05-05T01:14:17.754Z,89.81
2023-05-05T01:14:29.413Z,89.81
2023-05-05T01:14:41.888Z,89.81
2023-05-05T01:14:53.601Z,89.81
2023-05-05T01:15:05.353Z,89.75
2023-05-05T01:15:17.563Z,89.85
2023-05-05T01:15:29.748Z,89.85
2023-05-05T01:15:40.452Z,89.85
2023-05-05T01:15:51.222Z,89.85
2023-05-05T01:16:02.869Z,89.85
2023-05-05T01:16:15.332Z,89.85
2023-05-05T01:16:27.170Z,89.85
2023-05-05T01:16:39.638Z,89.75
2023-05-05T01:16:50.400Z,89.75
2023-05-05T01:17:01.119Z,89.75
2023-05-05T01:17:12.922Z,89.65
2023-05-05T01:17:24.692Z,89.65
2023-05-05T01:17:37.180Z,89.65
2023-05-05T01:17:50.398Z,89.65
2023-05-05T01:18:01.097Z,89.65
2023-05-05T01:18:12.806Z,89.65
2023-05-05T01:18:25.975Z,89.75
2023-05-05T01:18:38.411Z,89.75
2023-05-05T01:18:50.895Z,89.85
2023-05-05T01:19:04.045Z,89.85
2023-05-05T01:19:16.471Z,89.85
2023-05-05T01:19:28.399Z,89.75
2023-05-05T01:19:40.826Z,89.75
2023-05-05T01:19:52.539Z,89.75
2023-05-05T01:20:05.531Z,89.75
2023-05-05T01:20:17.724Z,89.85
2023-05-05T01:20:28.505Z,89.85
2023-05-05T01:20:40.176Z,89.85
2023-05-05T01:20:52.586Z,89.85
2023-05-05T01:21:05.022Z,89.85
2023-05-05T01:21:17.426Z,89.85
2023-05-05T01:21:29.859Z,89.95
2023-05-05T01:21:40.575Z,90.06
2023-05-05T01:21:53.716Z,90.06
2023-05-05T01:22:06.128Z,90.16
2023-05-05T01:22:16.820Z,90.16
2023-05-05T01:22:27.548Z,90.16
2023-05-05T01:22:38.258Z,90.16
2023-05-05T01:22:49.951Z,90.16
2023-05-05T01:23:00.662Z,90.16
2023-05-05T01:23:11.417Z,90.16
2023-05-05T01:23:23.132Z,90.16
2023-05-05T01:23:33.863Z,90.16
2023-05-05T01:23:46.302Z,90.16
2023-05-05T01:23:58.096Z,90.16
2023-05-05T01:24:09.009Z,90.16
2023-05-05T01:24:21.465Z,90.16
2023-05-05T01:24:32.232Z,90.31
2023-05-05T01:24:42.934Z,90.26
2023-05-05T01:24:53.689Z,90.37
2023-05-05T01:25:04.382Z,90.37
2023-05-05T01:25:16.092Z,90.37
2023-05-05T01:25:29.256Z,90.51
2023-05-05T01:25:40.959Z,90.51
2023-05-05T01:25:52.885Z,90.41
2023-05-05T01:26:05.846Z,90.41
2023-05-05T01:26:18.015Z,90.41
2023-05-05T01:26:29.737Z,90.41
2023-05-05T01:26:40.436Z,90.41
2023-05-05T01:26:52.359Z,90.41
2023-05-05T01:27:03.115Z,90.41
2023-05-05T01:27:14.795Z,90.41
2023-05-05T01:27:26.762Z,90.41
2023-05-05T01:27:37.460Z,90.41
2023-05-05T01:27:49.754Z,90.41
2023-05-05T01:28:00.531Z,90.51
2023-05-05T01:28:12.771Z,90.51
2023-05-05T01:28:23.471Z,90.51
2023-05-05T01:28:35.895Z,90.41
2023-05-05T01:28:49.044Z,90.41
2023-05-05T01:29:00.768Z,90.41
2023-05-05T01:29:13.175Z,90.41
2023-05-05T01:29:23.945Z,90.41
2023-05-05T01:29:36.342Z,90.41
2023-05-05T01:29:48.824Z,90.51
2023-05-05T01:29:59.508Z,90.51
2023-05-05T01:30:10.337Z,90.61
2023-05-05T01:30:21.111Z,90.61
2023-05-05T01:30:31.861Z,90.61
2023-05-05T01:30:43.641Z,90.61
2023-05-05T01:30:55.320Z,90.61
2023-05-05T01:31:06.032Z,90.61
2023-05-05T01:31:16.801Z,90.61
2023-05-05T01:31:29.802Z,90.61
2023-05-05T01:31:40.526Z,90.61
2023-05-05T01:31:51.319Z,90.61
2023-05-05T01:32:02.104Z,90.61
2023-05-05T01:32:13.731Z,90.61
2023-05-05T01:32:24.447Z,90.61
2023-05-05T01:32:36.184Z,90.61
2023-05-05T01:32:46.940Z,90.72
2023-05-05T01:32:59.122Z,90.72
2023-05-05T01:33:12.346Z,90.72
2023-05-05T01:33:23.051Z,90.72
2023-05-05T01:33:35.960Z,90.82
2023-05-05T01:33:47.653Z,90.92
2023-05-05T01:33:59.934Z,91.03
2023-05-05T01:34:11.857Z,91.13
2023-05-05T01:34:25.019Z,91.34
2023-05-05T01:34:37.433Z,91.44
2023-05-05T01:34:48.317Z,91.44
2023-05-05T01:35:01.028Z,91.44
2023-05-05T01:35:12.735Z,91.44
2023-05-05T01:35:25.140Z,91.44
2023-05-05T01:35:38.328Z,91.54
2023-05-05T01:35:50.530Z,91.64
2023-05-05T01:36:01.329Z,91.75
2023-05-05T01:36:13.776Z,91.85
2023-05-05T01:36:26.928Z,91.96
2023-05-05T01:36:37.672Z,92.06
2023-05-05T01:36:50.571Z,92.06
2023-05-05T01:37:01.269Z,91.96
2023-05-05T01:37:12.970Z,91.96
2023-05-05T01:37:25.409Z,91.96
2023-05-05T01:37:37.827Z,91.96
2023-05-05T01:37:50.300Z,91.85
2023-05-05T01:38:01.022Z,91.85
2023-05-05T01:38:12.736Z,91.75
2023-05-05T01:38:24.972Z,91.64
2023-05-05T01:38:37.678Z,91.64
2023-05-05T01:38:50.101Z,91.64
2023-05-05T01:39:02.553Z,91.64
2023-05-05T01:39:14.462Z,91.64
2023-05-05T01:39:26.876Z,91.64
2023-05-05T01:39:38.570Z,91.64
2023-05-05T01:39:49.300Z,91.64
2023-05-05T01:40:01.065Z,91.64
2023-05-05T01:40:12.732Z,91.54
2023-05-05T01:40:25.240Z,91.54
2023-05-05T01:40:36.887Z,91.54
2023-05-05T01:40:48.818Z,91.54
2023-05-05T01:41:00.469Z,91.54
2023-05-05T01:41:11.208Z,91.64
2023-05-05T01:41:21.908Z,91.64
2023-05-05T01:41:33.600Z,91.64
2023-05-05T01:41:45.308Z,91.64
2023-05-05T01:41:57.467Z,91.64
2023-05-05T01:42:09.200Z,91.54
2023-05-05T01:42:21.595Z,91.54
2023-05-05T01:42:32.292Z,91.54
2023-05-05T01:42:42.997Z,91.54
2023-05-05T01:42:54.711Z,91.54
2023-05-05T01:43:05.412Z,91.54
2023-05-05T01:43:17.591Z,91.54
2023-05-05T01:43:30.017Z,91.54
2023-05-05T01:43:42.435Z,91.54
2023-05-05T01:43:53.157Z,91.54
2023-05-05T01:44:03.863Z,91.54
2023-05-05T01:44:14.568Z,91.54
2023-05-05T01:44:25.301Z,91.54
2023-05-05T01:44:37.495Z,91.54
2023-05-05T01:44:48.271Z,91.64
2023-05-05T01:44:58.993Z,91.64
2023-05-05T01:45:10.689Z,91.64
2023-05-05T01:45:21.588Z,91.64
2023-05-05T01:45:32.420Z,91.64
2023-05-05T01:45:43.141Z,91.54
2023-05-05T01:45:55.578Z,91.54
2023-05-05T01:46:07.761Z,91.54
2023-05-05T01:46:18.483Z,91.44
2023-05-05T01:46:29.237Z,91.44
2023-05-05T01:46:39.947Z,91.44
2023-05-05T01:46:50.713Z,91.44
2023-05-05T01:47:02.456Z,91.44
2023-05-05T01:47:13.239Z,91.44
2023-05-05T01:47:25.709Z,91.34
2023-05-05T01:47:36.450Z,91.34
2023-05-05T01:47:47.197Z,91.34
2023-05-05T01:47:59.673Z,91.34
2023-05-05T01:48:11.351Z,91.24
2023-05-05T01:48:23.027Z,91.24
2023-05-05T01:48:33.773Z,91.24
2023-05-05T01:48:44.535Z,91.24
2023-05-05T01:48:56.990Z,91.24
2023-05-05T01:49:09.138Z,91.34
2023-05-05T01:49:22.838Z,91.44
2023-05-05T01:49:35.556Z,91.54
2023-05-05T01:49:47.964Z,91.64
2023-05-05T01:50:00.655Z,91.64
2023-05-05T01:50:12.381Z,91.64
2023-05-05T01:50:24.807Z,91.54
2023-05-05T01:50:36.547Z,91.54
2023-05-05T01:50:47.330Z,91.44
2023-05-05T01:50:58.030Z,91.44
2023-05-05T01:51:11.690Z,91.34
2023-05-05T01:51:22.426Z,91.34
2023-05-05T01:51:34.146Z,91.34
2023-05-05T01:51:46.531Z,91.44
2023-05-05T01:51:58.188Z,91.44
2023-05-05T01:52:08.980Z,91.44
2023-05-05T01:52:21.163Z,91.34
2023-05-05T01:52:34.362Z,91.34
2023-05-05T01:52:45.146Z,91.24
2023-05-05T01:52:55.873Z,91.24
2023-05-05T01:53:06.577Z,91.24
2023-05-05T01:53:17.282Z,91.24
2023-05-05T01:53:29.988Z,91.34
2023-05-05T01:53:42.394Z,91.44
2023-05-05T01:53:54.090Z,91.54
2023-05-05T01:54:04.792Z,91.54
2023-05-05T01:54:15.546Z,91.54
2023-05-05T01:54:27.839Z,91.54
2023-05-05T01:54:39.480Z,91.64
2023-05-05T01:54:52.210Z,91.64
2023-05-05T01:55:04.626Z,91.64
2023-05-05T01:55:16.312Z,91.64
2023-05-05T01:55:27.989Z,91.64
2023-05-05T01:55:40.181Z,91.64
2023-05-05T01:55:52.692Z,91.64
2023-05-05T01:56:04.443Z,91.64
2023-05-05T01:56:16.158Z,91.58
2023-05-05T01:56:27.836Z,91.44
2023-05-05T01:56:40.101Z,91.44
2023-05-05T01:56:53.190Z,91.44
2023-05-05T01:57:05.351Z,91.44
2023-05-05T01:57:17.805Z,91.34
2023-05-05T01:57:29.524Z,91.38
2023-05-05T01:57:40.258Z,91.38
2023-05-05T01:57:52.081Z,91.54
2023-05-05T01:58:04.509Z,91.64
2023-05-05T01:58:15.204Z,91.75
2023-05-05T01:58:27.607Z,91.75
2023-05-05T01:58:39.366Z,91.85
2023-05-05T01:58:51.063Z,91.85
2023-05-05T01:59:03.999Z,91.96
2023-05-05T01:59:14.755Z,91.96
2023-05-05T01:59:25.499Z,91.96
2023-05-05T01:59:38.638Z,91.85
2023-05-05T01:59:50.355Z,91.85
2023-05-05T02:00:02.580Z,91.85
2023-05-05T02:00:13.347Z,91.96
2023-05-05T02:00:25.017Z,91.96
2023-05-05T02:00:35.788Z,91.96
2023-05-05T02:00:46.566Z,91.96
2023-05-05T02:00:58.287Z,91.96
2023-05-05T02:01:10.509Z,91.96
2023-05-05T02:01:22.164Z,92.06
2023-05-05T02:01:32.957Z,92.16
2023-05-05T02:01:43.726Z,92.27
2023-05-05T02:01:55.882Z,92.16
2023-05-05T02:02:08.376Z,92.06
2023-05-05T02:02:19.075Z,92.06
2023-05-05T02:02:30.829Z,91.96
2023-05-05T02:02:41.663Z,91.96
2023-05-05T02:02:54.246Z,91.96
2023-05-05T02:03:05.998Z,91.96
2023-05-05T02:03:18.453Z,91.96
2023-05-05T02:03:30.924Z,91.85
2023-05-05T02:03:41.626Z,91.85
2023-05-05T02:03:52.375Z,91.85
2023-05-05T02:04:04.107Z,91.85
2023-05-05T02:04:16.521Z,91.85
2023-05-05T02:04:27.238Z,91.75
2023-05-05T02:04:37.959Z,91.85
2023-05-05T02:04:48.706Z,91.85
2023-05-05T02:05:00.963Z,91.75
2023-05-05T02:05:11.733Z,91.89
2023-05-05T02:05:22.451Z,91.85
2023-05-05T02:05:33.230Z,91.85
2023-05-05T02:05:45.620Z,91.85
2023-05-05T02:05:58.079Z,91.89
2023-05-05T02:06:08.774Z,91.85
2023-05-05T02:06:20.475Z,91.85
2023-05-05T02:06:31.458Z,91.96
2023-05-05T02:06:43.188Z,91.96
2023-05-05T02:06:53.900Z,91.96
2023-05-05T02:07:05.579Z,92.06
2023-05-05T02:07:18.045Z,92.16
2023-05-05T02:07:28.788Z,92.16
2023-05-05T02:07:39.493Z,92.27
2023-05-05T02:07:50.185Z,92.37
2023-05-05T02:08:00.936Z,92.57
2023-05-05T02:08:12.658Z,92.68
2023-05-05T02:08:24.423Z,92.88
2023-05-05T02:08:36.133Z,92.99
2023-05-05T02:08:47.813Z,93.09
2023-05-05T02:09:00.259Z,93.09
2023-05-05T02:09:12.690Z,93.09
2023-05-05T02:09:23.424Z,93.09
2023-05-05T02:09:35.132Z,93.09
2023-05-05T02:09:45.841Z,93.19
2023-05-05T02:09:57.534Z,93.19
2023-05-05T02:10:10.740Z,93.19
2023-05-05T02:10:22.927Z,93.09
2023-05-05T02:10:34.633Z,93.09
2023-05-05T02:10:46.805Z,92.99
2023-05-05T02:10:57.542Z,92.99
2023-05-05T02:11:09.336Z,92.88
2023-05-05T02:11:21.534Z,92.88
2023-05-05T02:11:35.220Z,92.88
2023-05-05T02:11:45.927Z,92.84
2023-05-05T02:11:58.371Z,92.84
2023-05-05T02:12:09.064Z,92.74
2023-05-05T02:12:21.459Z,92.74
2023-05-05T02:12:32.223Z,92.63
2023-05-05T02:12:43.942Z,92.63
2023-05-05T02:12:56.709Z,92.63
2023-05-05T02:13:07.532Z,92.63
2023-05-05T02:13:18.475Z,92.53
2023-05-05T02:13:30.207Z,92.53
2023-05-05T02:13:43.154Z,92.53
2023-05-05T02:13:54.883Z,92.43
2023-05-05T02:14:06.562Z,92.53
2023-05-05T02:14:18.225Z,92.53
2023-05-05T02:14:29.952Z,92.53
2023-05-05T02:14:42.345Z,92.53
2023-05-05T02:14:56.044Z,92.53
2023-05-05T02:15:06.740Z,92.53
2023-05-05T02:15:17.419Z,92.43
2023-05-05T02:15:30.144Z,92.43
2023-05-05T02:15:42.521Z,92.43
2023-05-05T02:15:55.742Z,92.33
2023-05-05T02:16:06.529Z,92.33
2023-05-05T02:16:17.247Z,92.33
2023-05-05T02:16:27.914Z,92.22
2023-05-05T02:16:40.078Z,92.22
2023-05-05T02:16:52.505Z,92.12
2023-05-05T02:17:04.815Z,92.02
2023-05-05T02:17:16.742Z,92.02
2023-05-05T02:17:27.510Z,92.02
2023-05-05T02:17:38.201Z,92.02
2023-05-05T02:17:51.968Z,92.02
2023-05-05T02:18:02.743Z,92.02
2023-05-05T02:18:13.469Z,92.02
2023-05-05T02:18:25.142Z,92.02
2023-05-05T02:18:36.807Z,92.02
2023-05-05T02:18:49.091Z,92.02
2023-05-05T02:19:01.262Z,92.02
2023-05-05T02:19:11.950Z,91.91
2023-05-05T02:19:24.857Z,91.91
2023-05-05T02:19:36.646Z,91.91
2023-05-05T02:19:48.806Z,91.81
2023-05-05T02:20:00.528Z,91.71
2023-05-05T02:20:12.981Z,91.71
2023-05-05T02:20:24.695Z,91.71
2023-05-05T02:20:36.380Z,91.71
2023-05-05T02:20:47.128Z,91.60
2023-05-05T02:20:57.853Z,91.71
2023-05-05T02:21:09.581Z,91.66
2023-05-05T02:21:22.777Z,91.77
2023-05-05T02:21:35.933Z,91.81
2023-05-05T02:21:47.640Z,91.77
2023-05-05T02:22:00.065Z,91.77
2023-05-05T02:22:12.271Z,91.66
2023-05-05T02:22:22.963Z,91.71
2023-05-05T02:22:33.685Z,91.60
2023-05-05T02:22:45.423Z,91.56
2023-05-05T02:22:57.138Z,91.36
2023-05-05T02:23:10.395Z,91.36
2023-05-05T02:23:22.097Z,91.36
2023-05-05T02:23:32.806Z,91.36
2023-05-05T02:23:43.523Z,91.36
2023-05-05T02:23:55.932Z,91.36
2023-05-05T02:24:06.632Z,91.25
2023-05-05T02:24:17.343Z,91.36
2023-05-05T02:24:29.002Z,91.25
2023-05-05T02:24:41.399Z,91.15
2023-05-05T02:24:53.883Z,91.25
2023-05-05T02:25:04.641Z,91.15
2023-05-05T02:25:15.350Z,91.15
2023-05-05T02:25:27.770Z,91.15
2023-05-05T02:25:38.560Z,91.05
2023-05-05T02:25:49.224Z,91.05
2023-05-05T02:25:59.985Z,90.94
2023-05-05T02:26:11.671Z,90.94
2023-05-05T02:26:24.352Z,91.05
2023-05-05T02:26:35.098Z,91.05
2023-05-05T02:26:45.833Z,91.05
2023-05-05T02:26:57.517Z,91.05
2023-05-05T02:27:10.042Z,91.15
2023-05-05T02:27:20.745Z,91.15
2023-05-05T02:27:31.496Z,91.15
2023-05-05T02:27:42.463Z,91.05
2023-05-05T02:27:53.263Z,90.94
2023-05-05T02:28:04.032Z,90.84
2023-05-05T02:28:16.225Z,90.94
2023-05-05T02:28:26.983Z,90.94
2023-05-05T02:28:37.713Z,90.94
2023-05-05T02:28:49.413Z,90.94
2023-05-05T02:29:01.815Z,91.05
2023-05-05T02:29:13.472Z,91.05
2023-05-05T02:29:24.224Z,91.05